Time;durP1;ratioP1;P1;durP2;ratioP2;P2;SDS_P1;SDS_P2;PMS_P1;PMS_P2;Temp;Humidity;BMP_temperature;BMP_pressure;BME280_temperature;BME280_humidity;BME280_pressure;Samples;Min_cycle;Max_cycle;Signal;HPM_P1;HPM_P2
2023/09/10 00:00:29;;;;;;;37.92;28.38;;;15.40;99.90;;;;;;4959141;28;20115;-73
2023/09/10 00:02:56;;;;;;;36.20;29.25;;;15.50;99.90;;;;;;4969729;28;20645;-74
2023/09/10 00:05:23;;;;;;;37.25;31.40;;;15.30;99.90;;;;;;4970941;28;20530;-73
2023/09/10 00:07:50;;;;;;;37.17;29.92;;;15.30;99.90;;;;;;4940549;28;20054;-72
2023/09/10 00:10:17;;;;;;;33.55;27.58;;;15.30;99.90;;;;;;4980124;28;20174;-73
2023/09/10 00:12:44;;;;;;;37.13;30.33;;;15.40;99.90;;;;;;4956309;28;20050;-73
2023/09/10 00:15:11;;;;;;;36.75;28.52;;;15.40;99.90;;;;;;4942891;28;20145;-74
2023/09/10 00:17:37;;;;;;;37.42;28.45;;;15.20;99.90;;;;;;4964117;28;20065;-73
2023/09/10 00:20:06;;;;;;;38.88;31.90;;;15.20;99.90;;;;;;4972545;28;20507;-73
2023/09/10 00:22:34;;;;;;;36.08;29.83;;;15.20;99.90;;;;;;5038706;28;20051;-73
2023/09/10 00:25:01;;;;;;;37.17;30.77;;;15.10;99.90;;;;;;4973430;28;20036;-74
2023/09/10 00:27:28;;;;;;;32.97;29.55;;;15.30;99.90;;;;;;4967786;28;20046;-72
2023/09/10 00:29:55;;;;;;;36.38;30.60;;;15.30;99.90;;;;;;4956094;28;21432;-74
2023/09/10 00:32:22;;;;;;;32.50;27.33;;;15.10;99.90;;;;;;4980622;28;20187;-73
2023/09/10 00:34:49;;;;;;;40.83;29.67;;;15.00;99.90;;;;;;4956260;28;20034;-74
2023/09/10 00:37:18;;;;;;;35.38;30.58;;;15.10;99.90;;;;;;4970793;28;20414;-72
2023/09/10 00:39:45;;;;;;;38.33;31.70;;;15.10;99.90;;;;;;4971308;28;20450;-73
2023/09/10 00:42:12;;;;;;;33.28;29.63;;;14.90;99.90;;;;;;4959606;28;20103;-74
2023/09/10 00:44:40;;;;;;;35.25;27.23;;;15.00;99.90;;;;;;4971464;28;20046;-72
2023/09/10 00:47:09;;;;;;;32.65;26.20;;;15.00;99.90;;;;;;4961307;28;20101;-74
2023/09/10 00:49:36;;;;;;;33.42;25.80;;;15.00;99.90;;;;;;4941043;28;20488;-74
2023/09/10 00:52:05;;;;;;;27.58;24.60;;;15.00;99.90;;;;;;4973108;28;20510;-73
2023/09/10 00:54:33;;;;;;;32.03;25.35;;;14.90;99.90;;;;;;4970190;28;20061;-73
2023/09/10 00:57:03;;;;;;;32.25;26.27;;;15.00;99.90;;;;;;4938307;28;20089;-72
2023/09/10 00:59:30;;;;;;;32.33;27.85;;;14.90;99.90;;;;;;4985818;28;20104;-74
2023/09/10 01:01:58;;;;;;;31.83;27.30;;;14.80;99.90;;;;;;4975580;28;21357;-72
2023/09/10 01:04:25;;;;;;;30.75;25.63;;;14.80;99.90;;;;;;4969189;28;20081;-74
2023/09/10 01:06:52;;;;;;;28.92;25.88;;;14.70;99.90;;;;;;4941859;28;20066;-73
2023/09/10 01:09:19;;;;;;;29.20;26.10;;;14.60;99.90;;;;;;4980130;28;20118;-73
2023/09/10 01:12:09;;;;;;;31.20;27.95;;;14.60;99.90;;;;;;5032577;28;20048;-73
2023/09/10 01:14:42;;;;;;;32.25;27.80;;;14.50;99.90;;;;;;4966196;28;20039;-72
2023/09/10 01:17:14;;;;;;;29.35;26.35;;;14.40;99.90;;;;;;4976505;28;20055;-73
2023/09/10 01:19:50;;;;;;;30.08;26.73;;;14.30;99.90;;;;;;4956811;28;20671;-72
2023/09/10 01:22:17;;;;;;;28.02;25.40;;;14.40;99.90;;;;;;4969009;28;20051;-73
2023/09/10 01:24:51;;;;;;;28.00;25.33;;;14.60;99.90;;;;;;4957835;28;20481;-74
2023/09/10 01:27:18;;;;;;;27.50;24.13;;;14.70;99.90;;;;;;4974368;28;20487;-73
2023/09/10 01:29:45;;;;;;;28.98;25.67;;;14.60;99.90;;;;;;4966747;28;20638;-72
2023/09/10 01:32:20;;;;;;;29.75;26.08;;;14.60;99.90;;;;;;4977100;28;20042;-72
2023/09/10 01:35:02;;;;;;;33.60;26.45;;;14.60;99.90;;;;;;4963882;28;20051;-73
2023/09/10 01:38:06;;;;;;;29.27;26.30;;;14.50;99.90;;;;;;4971704;28;20446;-72
2023/09/10 01:40:36;;;;;;;31.77;27.05;;;14.60;99.90;;;;;;4979338;28;20042;-74
2023/09/10 01:43:05;;;;;;;33.25;26.83;;;14.50;99.90;;;;;;4951677;28;20970;-72
2023/09/10 01:45:36;;;;;;;32.50;27.58;;;14.50;99.90;;;;;;4955476;28;20050;-73
2023/09/10 01:48:04;;;;;;;36.10;29.42;;;14.40;99.90;;;;;;4973856;28;20100;-73
2023/09/10 01:50:31;;;;;;;34.13;29.60;;;14.50;99.90;;;;;;5034170;28;20045;-73
2023/09/10 01:52:58;;;;;;;33.90;28.65;;;14.50;99.90;;;;;;5040095;28;20063;-73
2023/09/10 01:55:26;;;;;;;30.02;26.77;;;14.50;99.90;;;;;;4985174;28;20050;-74
2023/09/10 01:57:54;;;;;;;35.20;27.05;;;14.40;99.90;;;;;;4957685;28;20057;-73
2023/09/10 02:00:22;;;;;;;30.77;25.77;;;14.30;99.90;;;;;;4956467;28;20054;-73
2023/09/10 02:02:49;;;;;;;29.92;26.73;;;14.20;99.90;;;;;;4976055;28;20058;-72
2023/09/10 02:05:16;;;;;;;31.42;27.05;;;14.30;99.90;;;;;;4981734;28;20103;-73
2023/09/10 02:07:43;;;;;;;32.78;29.48;;;14.20;99.90;;;;;;4988828;28;20042;-71
2023/09/10 02:10:10;;;;;;;31.08;27.85;;;14.10;99.90;;;;;;4958619;28;20043;-73
2023/09/10 02:12:43;;;;;;;35.35;31.15;;;14.10;99.90;;;;;;4967290;28;20050;-73
2023/09/10 02:15:16;;;;;;;35.05;28.73;;;14.00;99.90;;;;;;4962396;28;20058;-74
2023/09/10 02:17:43;;;;;;;32.70;29.10;;;14.10;99.90;;;;;;4961477;28;20724;-73
2023/09/10 02:20:13;;;;;;;33.70;27.08;;;14.20;99.90;;;;;;4938079;28;20209;-72
2023/09/10 02:22:40;;;;;;;37.50;28.58;;;14.20;99.90;;;;;;4961704;28;20067;-74
2023/09/10 02:25:08;;;;;;;34.25;29.50;;;14.10;99.90;;;;;;4972148;28;20048;-72
2023/09/10 02:27:35;;;;;;;30.75;27.65;;;14.00;99.90;;;;;;4961174;28;20046;-73
2023/09/10 02:30:06;;;;;;;32.40;28.05;;;14.10;99.90;;;;;;4953158;28;20107;-72
2023/09/10 02:32:33;;;;;;;31.45;28.23;;;14.10;99.90;;;;;;5042268;28;20057;-72
2023/09/10 02:35:00;;;;;;;36.13;30.60;;;14.10;99.90;;;;;;4966972;28;20133;-72
2023/09/10 02:37:28;;;;;;;34.10;30.70;;;14.20;99.90;;;;;;4959202;28;20042;-73
2023/09/10 02:39:54;;;;;;;34.00;30.27;;;14.10;99.90;;;;;;4983693;28;20048;-73
2023/09/10 02:42:21;;;;;;;38.25;30.23;;;14.20;99.90;;;;;;4974461;28;20054;-74
2023/09/10 02:44:48;;;;;;;36.17;28.90;;;14.10;99.90;;;;;;4978817;28;20505;-73
2023/09/10 02:47:15;;;;;;;37.00;32.35;;;14.10;99.90;;;;;;4977763;28;20453;-73
2023/09/10 02:49:42;;;;;;;41.03;32.20;;;14.20;99.90;;;;;;4964648;28;20035;-74
2023/09/10 02:52:09;;;;;;;34.30;30.40;;;14.20;99.90;;;;;;4960091;28;20072;-72
2023/09/10 02:54:36;;;;;;;38.63;31.60;;;14.20;99.90;;;;;;4957543;28;20051;-74
2023/09/10 02:57:03;;;;;;;38.78;31.98;;;14.20;99.90;;;;;;4971075;28;20041;-72
2023/09/10 02:59:30;;;;;;;36.30;31.50;;;14.20;99.90;;;;;;4967097;28;20095;-74
2023/09/10 03:01:57;;;;;;;35.60;31.67;;;14.00;99.90;;;;;;4983043;28;20492;-72
2023/09/10 03:04:23;;;;;;;37.75;32.15;;;13.90;99.90;;;;;;4966911;28;20058;-74
2023/09/10 03:06:51;;;;;;;39.15;32.42;;;13.90;99.90;;;;;;4963732;28;20037;-73
2023/09/10 03:09:17;;;;;;;37.13;32.50;;;13.80;99.90;;;;;;4977621;28;20160;-74
2023/09/10 03:11:45;;;;;;;37.17;33.03;;;13.70;99.90;;;;;;4966925;28;20047;-73
2023/09/10 03:14:12;;;;;;;39.47;35.13;;;13.80;99.90;;;;;;4953838;28;20043;-73
2023/09/10 03:16:42;;;;;;;43.45;36.33;;;13.90;99.90;;;;;;4960741;28;20065;-73
2023/09/10 03:19:11;;;;;;;37.47;33.60;;;14.00;99.90;;;;;;4960233;28;20127;-71
2023/09/10 03:21:38;;;;;;;67.53;48.95;;;14.10;99.90;;;;;;4964782;28;20407;-73
2023/09/10 03:24:06;;;;;;;69.68;50.67;;;14.10;99.90;;;;;;4956639;28;20522;-74
2023/09/10 03:26:33;;;;;;;59.70;44.08;;;14.10;99.90;;;;;;4959764;28;20046;-72
2023/09/10 03:28:59;;;;;;;56.10;44.85;;;13.90;99.90;;;;;;4952794;28;20046;-73
2023/09/10 03:31:28;;;;;;;53.15;43.67;;;13.90;99.90;;;;;;4966629;28;20050;-72
2023/09/10 03:33:55;;;;;;;56.83;46.17;;;14.00;99.90;;;;;;4963295;28;20050;-73
2023/09/10 03:36:22;;;;;;;59.50;44.92;;;14.10;99.90;;;;;;4957614;28;20062;-73
2023/09/10 03:38:48;;;;;;;55.88;41.90;;;14.00;99.90;;;;;;4952517;28;20133;-73
2023/09/10 03:41:17;;;;;;;54.97;44.13;;;13.80;99.90;;;;;;4960406;28;20046;-74
2023/09/10 03:43:44;;;;;;;51.53;42.53;;;13.90;99.90;;;;;;4967085;28;20554;-73
2023/09/10 03:46:11;;;;;;;45.72;40.80;;;13.80;99.90;;;;;;4972915;28;20257;-73
2023/09/10 03:48:38;;;;;;;59.75;46.72;;;13.90;99.90;;;;;;4946916;28;20058;-73
2023/09/10 03:51:05;;;;;;;58.10;48.58;;;13.80;99.90;;;;;;4951024;28;20070;-74
2023/09/10 03:53:32;;;;;;;58.80;47.25;;;13.80;99.90;;;;;;5043960;28;20053;-73
2023/09/10 03:55:59;;;;;;;48.42;43.15;;;13.80;99.90;;;;;;4944469;28;20067;-73
2023/09/10 03:58:26;;;;;;;41.50;37.08;;;13.90;99.90;;;;;;4973546;28;20080;-73
2023/09/10 04:00:53;;;;;;;55.10;46.65;;;13.90;99.90;;;;;;4968199;28;20050;-73
2023/09/10 04:03:20;;;;;;;51.03;43.97;;;13.90;99.90;;;;;;4976324;28;20046;-72
2023/09/10 04:05:47;;;;;;;41.75;37.55;;;13.90;99.90;;;;;;4966090;28;20065;-74
2023/09/10 04:08:14;;;;;;;38.40;34.67;;;13.80;99.90;;;;;;4975618;28;20046;-73
2023/09/10 04:10:41;;;;;;;35.70;32.38;;;13.70;99.90;;;;;;4982248;28;20466;-73
2023/09/10 04:13:08;;;;;;;37.55;33.83;;;13.60;99.90;;;;;;4977836;28;20663;-73
2023/09/10 04:15:35;;;;;;;33.97;30.73;;;13.50;99.90;;;;;;4965461;28;20046;-72
2023/09/10 04:18:04;;;;;;;34.95;31.23;;;13.40;99.90;;;;;;4965857;28;20063;-73
2023/09/10 04:20:31;;;;;;;39.15;34.72;;;13.30;99.90;;;;;;4978646;28;20617;-73
2023/09/10 04:22:58;;;;;;;37.65;34.03;;;13.20;99.90;;;;;;4956863;28;20110;-72
2023/09/10 04:25:25;;;;;;;37.53;33.47;;;13.10;99.90;;;;;;4944845;28;20049;-73
2023/09/10 04:27:52;;;;;;;38.90;34.97;;;13.10;99.90;;;;;;4960730;28;20136;-73
2023/09/10 04:30:19;;;;;;;38.00;34.28;;;13.10;99.90;;;;;;4973608;28;20057;-72
2023/09/10 04:32:46;;;;;;;38.97;35.08;;;13.00;99.90;;;;;;4990632;28;20046;-73
2023/09/10 04:35:12;;;;;;;38.97;35.00;;;13.00;99.90;;;;;;4959466;28;20952;-72
2023/09/10 04:37:39;;;;;;;42.15;38.00;;;13.00;99.90;;;;;;4963983;28;20670;-74
2023/09/10 04:40:07;;;;;;;44.90;40.15;;;13.10;99.90;;;;;;4953610;28;20396;-72
2023/09/10 04:42:37;;;;;;;48.17;42.75;;;13.20;99.90;;;;;;4983614;28;20072;-74
2023/09/10 04:45:04;;;;;;;47.90;40.15;;;13.30;99.90;;;;;;4956253;28;20046;-73
2023/09/10 04:47:31;;;;;;;49.88;42.90;;;13.20;99.90;;;;;;4963620;28;20096;-72
2023/09/10 04:49:58;;;;;;;49.00;43.25;;;13.20;99.90;;;;;;4981259;28;20041;-72
2023/09/10 04:52:25;;;;;;;48.92;42.28;;;13.30;99.90;;;;;;4945579;28;20051;-74
2023/09/10 04:54:52;;;;;;;51.28;43.13;;;13.40;99.90;;;;;;4958918;28;20653;-72
2023/09/10 04:57:19;;;;;;;53.13;43.83;;;13.40;99.90;;;;;;5040203;28;20081;-73
2023/09/10 04:59:46;;;;;;;59.83;46.30;;;13.40;99.90;;;;;;4972514;28;20046;-72
2023/09/10 05:02:13;;;;;;;72.72;53.70;;;13.40;99.90;;;;;;4972058;28;20062;-72
2023/09/10 05:04:40;;;;;;;77.60;54.50;;;13.40;99.90;;;;;;4976821;28;20054;-73
2023/09/10 05:07:07;;;;;;;88.35;59.75;;;13.40;99.90;;;;;;4952278;28;20527;-72
2023/09/10 05:09:34;;;;;;;75.47;56.63;;;13.40;99.90;;;;;;4945885;28;20638;-73
2023/09/10 05:12:01;;;;;;;65.40;50.22;;;13.50;99.90;;;;;;4958191;28;20053;-72
2023/09/10 05:14:27;;;;;;;100.65;61.50;;;13.50;99.90;;;;;;4954145;28;20066;-73
2023/09/10 05:16:54;;;;;;;72.47;55.47;;;13.60;99.90;;;;;;4959938;28;20054;-72
2023/09/10 05:19:23;;;;;;;79.97;53.35;;;13.70;99.90;;;;;;4960487;28;20057;-72
2023/09/10 05:21:50;;;;;;;96.03;63.88;;;13.70;99.90;;;;;;4958385;28;20500;-74
2023/09/10 05:24:17;;;;;;;77.30;57.08;;;13.70;99.90;;;;;;4967700;28;20056;-72
2023/09/10 05:26:44;;;;;;;98.07;66.93;;;13.80;99.90;;;;;;4971032;28;20729;-73
2023/09/10 05:29:11;;;;;;;81.25;62.13;;;13.70;99.90;;;;;;4964690;28;20042;-73
2023/09/10 05:31:38;;;;;;;97.28;66.43;;;13.70;99.90;;;;;;4977438;28;21274;-74
2023/09/10 05:34:04;;;;;;;81.25;58.85;;;13.60;99.90;;;;;;4981424;28;20105;-73
2023/09/10 05:36:31;;;;;;;57.80;46.97;;;13.70;99.90;;;;;;4975255;28;20047;-72
2023/09/10 05:38:58;;;;;;;42.95;38.35;;;13.60;99.90;;;;;;4965437;28;20054;-72
2023/09/10 05:41:25;;;;;;;39.72;35.58;;;13.60;99.90;;;;;;4984506;28;20065;-72
2023/09/10 05:43:52;;;;;;;41.67;36.53;;;13.50;99.90;;;;;;4962174;28;20057;-73
2023/09/10 05:46:19;;;;;;;41.33;37.00;;;13.50;99.90;;;;;;4975992;28;20141;-73
2023/09/10 05:48:46;;;;;;;42.13;37.67;;;13.50;99.90;;;;;;4982739;28;20123;-73
2023/09/10 05:51:13;;;;;;;50.40;41.88;;;13.60;99.90;;;;;;4975553;28;20038;-73
2023/09/10 05:53:42;;;;;;;45.40;40.58;;;13.60;99.90;;;;;;4966062;28;20101;-73
2023/09/10 05:56:09;;;;;;;42.15;37.47;;;13.70;99.90;;;;;;5041555;28;20044;-73
2023/09/10 05:58:36;;;;;;;48.75;43.50;;;13.80;99.90;;;;;;4982048;28;20480;-74
2023/09/10 06:01:04;;;;;;;53.17;45.47;;;13.90;99.90;;;;;;4948681;28;20046;-73
2023/09/10 06:03:31;;;;;;;52.78;44.67;;;13.90;99.90;;;;;;4959216;28;20050;-73
2023/09/10 06:06:00;;;;;;;52.08;43.50;;;14.00;99.90;;;;;;4965055;28;20038;-72
2023/09/10 06:08:30;;;;;;;47.92;42.30;;;14.20;99.90;;;;;;5021056;28;20049;-73
2023/09/10 06:10:57;;;;;;;47.00;41.20;;;14.20;99.90;;;;;;4946921;28;20143;-72
2023/09/10 06:13:24;;;;;;;47.55;42.03;;;14.30;99.90;;;;;;4979055;28;20062;-73
2023/09/10 06:15:51;;;;;;;47.33;42.35;;;14.40;99.90;;;;;;5016416;28;20052;-72
2023/09/10 06:18:18;;;;;;;54.38;44.97;;;14.40;99.90;;;;;;5009716;28;20050;-73
2023/09/10 06:20:45;;;;;;;64.38;52.70;;;14.60;99.90;;;;;;4965431;28;20123;-73
2023/09/10 06:23:11;;;;;;;62.63;51.15;;;14.70;99.90;;;;;;4983117;28;20050;-74
2023/09/10 06:25:38;;;;;;;62.30;51.58;;;14.80;99.90;;;;;;4960782;28;20452;-74
2023/09/10 06:28:06;;;;;;;64.43;52.70;;;14.90;99.90;;;;;;4956678;28;20610;-72
2023/09/10 06:30:33;;;;;;;65.95;54.35;;;15.00;99.90;;;;;;4961133;28;20047;-73
2023/09/10 06:32:59;;;;;;;100.00;69.88;;;15.10;99.90;;;;;;4943178;28;20042;-72
2023/09/10 06:35:26;;;;;;;94.65;70.22;;;15.30;99.90;;;;;;4970173;28;20614;-73
2023/09/10 06:37:53;;;;;;;87.65;64.25;;;15.50;99.90;;;;;;4943701;28;20065;-72
2023/09/10 06:40:21;;;;;;;83.93;65.03;;;15.50;99.90;;;;;;4955827;28;20790;-72
2023/09/10 06:42:48;;;;;;;88.15;66.35;;;15.60;99.90;;;;;;4963433;28;20071;-72
2023/09/10 06:45:32;;;;;;;94.03;66.57;;;15.80;99.90;;;;;;4974162;28;20038;-73
2023/09/10 06:47:59;;;;;;;77.88;60.72;;;15.90;99.90;;;;;;4959159;28;20499;-72
2023/09/10 06:50:26;;;;;;;73.43;59.45;;;16.10;99.90;;;;;;4982810;28;20054;-72
2023/09/10 06:52:53;;;;;;;68.47;56.72;;;16.20;99.90;;;;;;5037361;28;20046;-74
2023/09/10 06:55:20;;;;;;;72.78;56.75;;;16.30;99.90;;;;;;4967249;28;20044;-73
2023/09/10 06:57:47;;;;;;;71.05;56.25;;;16.50;99.90;;;;;;4961108;28;20048;-73
2023/09/10 07:00:14;;;;;;;78.38;62.03;;;16.70;99.90;;;;;;4979336;28;20187;-73
2023/09/10 07:02:40;;;;;;;78.28;59.65;;;16.90;99.90;;;;;;4988744;28;20046;-73
2023/09/10 07:05:07;;;;;;;76.53;61.42;;;17.10;99.90;;;;;;4959984;28;20129;-72
2023/09/10 07:07:35;;;;;;;75.30;61.03;;;17.30;99.90;;;;;;4986187;28;20078;-73
2023/09/10 07:10:02;;;;;;;73.28;57.88;;;17.50;99.90;;;;;;4976570;28;20759;-74
2023/09/10 07:12:29;;;;;;;66.65;56.25;;;17.70;99.90;;;;;;4988354;28;20038;-73
2023/09/10 07:14:56;;;;;;;59.65;49.42;;;17.90;99.90;;;;;;4974957;28;20629;-73
2023/09/10 07:17:23;;;;;;;49.50;42.30;;;18.40;99.90;;;;;;4963579;28;20047;-73
2023/09/10 07:19:49;;;;;;;42.45;37.90;;;18.70;99.90;;;;;;4981047;28;20046;-74
2023/09/10 07:22:16;;;;;;;42.85;38.28;;;19.10;99.90;;;;;;4973223;28;20145;-74
2023/09/10 07:24:43;;;;;;;44.33;40.22;;;19.70;99.90;;;;;;4978191;28;20493;-74
2023/09/10 07:27:10;;;;;;;42.75;38.58;;;20.20;99.90;;;;;;4948923;28;20045;-73
2023/09/10 07:29:37;;;;;;;46.80;42.20;;;20.60;99.90;;;;;;4971328;28;20042;-73
2023/09/10 07:32:04;;;;;;;43.15;39.25;;;21.00;99.90;;;;;;4980496;28;20119;-73
2023/09/10 07:34:31;;;;;;;43.83;39.95;;;21.40;99.90;;;;;;4957387;28;20046;-73
2023/09/10 07:36:57;;;;;;;42.10;38.58;;;21.70;99.90;;;;;;4974482;28;20191;-74
2023/09/10 07:39:29;;;;;;;43.42;39.33;;;21.90;99.90;;;;;;4981135;28;20737;-74
2023/09/10 07:41:56;;;;;;;45.65;41.33;;;22.20;99.90;;;;;;4966432;28;20138;-73
2023/09/10 07:44:23;;;;;;;47.20;43.08;;;22.40;99.90;;;;;;4978479;28;20050;-74
2023/09/10 07:46:52;;;;;;;45.65;41.78;;;22.50;99.90;;;;;;4955146;28;20051;-74
2023/09/10 07:49:19;;;;;;;49.50;44.72;;;22.80;99.90;;;;;;4982246;28;20042;-73
2023/09/10 07:51:45;;;;;;;49.50;45.15;;;23.00;99.90;;;;;;4961084;28;20475;-74
2023/09/10 07:54:12;;;;;;;50.50;45.72;;;23.30;99.90;;;;;;4964893;28;20047;-73
2023/09/10 07:56:39;;;;;;;52.10;47.55;;;23.70;99.90;;;;;;4978802;28;20043;-73
2023/09/10 07:59:08;;;;;;;57.20;51.85;;;24.00;99.90;;;;;;4976353;28;20051;-72
2023/09/10 08:01:42;;;;;;;58.20;53.10;;;24.10;99.90;;;;;;5023469;28;20062;-72
2023/09/10 08:04:09;;;;;;;55.05;50.13;;;24.30;99.90;;;;;;4964932;28;20044;-72
2023/09/10 08:06:36;;;;;;;57.63;52.08;;;24.20;99.90;;;;;;4983905;28;20073;-73
2023/09/10 08:09:03;;;;;;;55.65;50.42;;;24.20;99.90;;;;;;4953356;28;20046;-74
2023/09/10 08:11:35;;;;;;;56.47;51.30;;;24.40;99.90;;;;;;4967077;28;20137;-72
2023/09/10 08:14:02;;;;;;;57.38;52.38;;;24.60;99.90;;;;;;4967775;28;20078;-72
2023/09/10 08:16:29;;;;;;;57.03;52.13;;;24.50;99.90;;;;;;4982946;28;20038;-72
2023/09/10 08:18:56;;;;;;;54.03;49.58;;;24.50;99.90;;;;;;4977547;28;20050;-75
2023/09/10 08:21:30;;;;;;;58.25;53.10;;;24.90;99.90;;;;;;4977973;28;20054;-73
2023/09/10 08:23:58;;;;;;;56.30;51.20;;;25.30;99.90;;;;;;4963107;28;20049;-73
2023/09/10 08:26:25;;;;;;;55.85;50.97;;;25.40;99.90;;;;;;4973603;28;20044;-74
2023/09/10 08:28:52;;;;;;;56.40;51.58;;;25.50;99.90;;;;;;4957046;28;20046;-73
2023/09/10 08:31:19;;;;;;;57.47;52.67;;;25.80;99.90;;;;;;4948509;28;20050;-72
2023/09/10 08:33:45;;;;;;;55.67;50.67;;;25.90;99.90;;;;;;4958478;28;20042;-73
2023/09/10 08:36:12;;;;;;;55.72;50.40;;;26.00;99.90;;;;;;4937867;28;20514;-72
2023/09/10 08:38:41;;;;;;;53.60;48.80;;;26.20;99.90;;;;;;4978842;28;20077;-72
2023/09/10 08:41:18;;;;;;;55.50;51.00;;;26.20;99.90;;;;;;4960330;28;20069;-72
2023/09/10 08:43:56;;;;;;;54.50;49.85;;;26.60;99.90;;;;;;5039888;28;20129;-73
2023/09/10 08:46:30;;;;;;;57.63;52.35;;;26.60;99.90;;;;;;4946600;28;20670;-73
2023/09/10 08:51:59;;;;;;;56.72;51.95;;;26.70;99.90;;;;;;4976583;28;20068;-73
2023/09/10 08:54:26;;;;;;;55.42;50.75;;;26.60;99.90;;;;;;4961458;28;20062;-73
2023/09/10 08:56:55;;;;;;;55.75;50.47;;;26.70;99.90;;;;;;4948622;28;20046;-76
2023/09/10 08:59:23;;;;;;;54.60;49.70;;;26.80;99.90;;;;;;4969063;28;20054;-74
2023/09/10 09:01:50;;;;;;;54.05;49.30;;;26.80;99.90;;;;;;4968740;28;20046;-75
2023/09/10 09:04:18;;;;;;;51.45;47.05;;;26.70;99.90;;;;;;4978400;28;20068;-73
2023/09/10 09:06:50;;;;;;;51.70;47.33;;;27.10;99.90;;;;;;4979761;28;20037;-73
2023/09/10 09:09:29;;;;;;;52.70;48.00;;;27.50;99.90;;;;;;4961335;28;20046;-73
2023/09/10 09:12:16;;;;;;;55.42;50.60;;;27.90;99.90;;;;;;4967239;28;20045;-72
2023/09/10 09:14:53;;;;;;;54.45;49.85;;;27.90;99.90;;;;;;4963815;28;20049;-73
2023/09/10 09:17:21;;;;;;;58.35;53.45;;;28.10;99.90;;;;;;4979533;28;20104;-73
2023/09/10 09:19:50;;;;;;;54.10;49.50;;;28.40;99.90;;;;;;4980103;28;20084;-72
2023/09/10 09:22:20;;;;;;;55.65;50.72;;;28.20;99.90;;;;;;4979118;28;20038;-72
2023/09/10 09:24:48;;;;;;;54.25;49.75;;;28.10;99.90;;;;;;4984612;28;20111;-73
2023/09/10 09:27:16;;;;;;;56.05;51.22;;;28.30;99.90;;;;;;4975645;28;20399;-72
2023/09/10 09:29:44;;;;;;;55.50;50.92;;;28.30;99.90;;;;;;4978143;28;20137;-72
2023/09/10 09:32:11;;;;;;;59.50;53.97;;;28.40;99.90;;;;;;4958843;28;20045;-72
2023/09/10 09:34:38;;;;;;;55.30;50.60;;;28.20;99.90;;;;;;4981013;28;20141;-73
2023/09/10 09:37:05;;;;;;;57.17;52.50;;;28.20;99.90;;;;;;4958413;28;20061;-73
2023/09/10 09:39:31;;;;;;;55.60;50.90;;;28.40;99.90;;;;;;4966982;28;20054;-73
2023/09/10 09:42:05;;;;;;;52.70;48.38;;;28.50;99.90;;;;;;4983456;28;20114;-72
2023/09/10 09:44:32;;;;;;;50.55;46.42;;;28.30;99.90;;;;;;4961040;28;20703;-73
2023/09/10 09:47:04;;;;;;;50.25;46.53;;;28.30;99.90;;;;;;4978317;28;20111;-71
2023/09/10 09:49:41;;;;;;;52.50;48.03;;;28.40;99.90;;;;;;4966852;28;20048;-73
2023/09/10 09:52:11;;;;;;;48.03;44.38;;;28.20;99.90;;;;;;4976925;28;20439;-73
2023/09/10 09:54:39;;;;;;;48.33;44.22;;;28.60;99.90;;;;;;4962179;28;20407;-73
2023/09/10 09:57:06;;;;;;;49.88;45.97;;;28.70;99.90;;;;;;4981929;28;20516;-72
2023/09/10 09:59:37;;;;;;;48.28;44.38;;;28.60;99.90;;;;;;4962528;28;20054;-71
2023/09/10 10:02:04;;;;;;;50.30;46.13;;;28.50;99.90;;;;;;4976715;28;20146;-73
2023/09/10 10:04:32;;;;;;;52.45;48.45;;;28.40;99.90;;;;;;5007301;28;20564;-73
2023/09/10 10:07:02;;;;;;;52.88;48.05;;;28.30;99.90;;;;;;4976170;28;20591;-72
2023/09/10 10:09:48;;;;;;;49.30;45.67;;;28.40;99.90;;;;;;4979156;28;20192;-71
2023/09/10 10:12:15;;;;;;;51.10;47.08;;;28.70;99.90;;;;;;4960765;28;20054;-71
2023/09/10 10:14:42;;;;;;;50.92;46.70;;;28.60;99.90;;;;;;4963237;28;20213;-71
2023/09/10 10:17:11;;;;;;;48.47;44.80;;;28.90;99.90;;;;;;5040314;28;20499;-71
2023/09/10 10:19:39;;;;;;;47.30;43.80;;;28.80;99.90;;;;;;4966238;28;20922;-73
2023/09/10 10:22:07;;;;;;;47.97;44.47;;;28.80;99.90;;;;;;4975757;28;21054;-73
2023/09/10 10:24:34;;;;;;;52.25;48.33;;;28.90;99.90;;;;;;4958888;28;20931;-71
2023/09/10 10:27:01;;;;;;;50.53;46.75;;;28.70;99.90;;;;;;4977842;28;20271;-73
2023/09/10 10:29:29;;;;;;;47.75;44.13;;;28.80;99.90;;;;;;4966981;28;20043;-72
2023/09/10 10:32:06;;;;;;;47.67;43.92;;;29.00;99.90;;;;;;4944181;28;20046;-71
2023/09/10 10:34:37;;;;;;;46.25;42.85;;;29.00;99.90;;;;;;4975263;28;20616;-74
2023/09/10 10:37:16;;;;;;;49.30;45.17;;;28.50;99.90;;;;;;4942207;28;20044;-73
2023/09/10 10:40:01;;;;;;;46.85;43.22;;;28.50;99.90;;;;;;4980764;28;20664;-74
2023/09/10 10:43:06;;;;;;;51.38;47.58;;;28.20;99.90;;;;;;4976726;28;20039;-74
2023/09/10 10:45:33;;;;;;;49.05;45.15;;;28.60;99.90;;;;;;4979651;28;20051;-71
2023/09/10 10:48:13;;;;;;;46.72;43.45;;;28.90;99.90;;;;;;4973644;28;20675;-72
2023/09/10 10:50:44;;;;;;;46.65;43.17;;;29.20;99.90;;;;;;4977215;28;20049;-72
2023/09/10 10:53:14;;;;;;;50.10;45.92;;;29.40;99.90;;;;;;4979082;28;20419;-72
2023/09/10 10:55:42;;;;;;;47.85;44.20;;;29.40;99.90;;;;;;4975161;28;20116;-71
2023/09/10 10:58:09;;;;;;;47.65;44.28;;;29.20;99.90;;;;;;4975790;28;20057;-71
2023/09/10 11:00:36;;;;;;;47.17;43.72;;;29.10;99.90;;;;;;4958555;28;20092;-72
2023/09/10 11:03:11;;;;;;;47.13;43.80;;;29.30;99.90;;;;;;4964581;28;20047;-74
2023/09/10 11:05:54;;;;;;;46.78;43.38;;;29.40;99.90;;;;;;4974766;28;20046;-71
2023/09/10 11:08:29;;;;;;;46.95;43.33;;;29.50;99.90;;;;;;4971992;28;20082;-71
2023/09/10 11:10:57;;;;;;;47.80;44.38;;;29.70;99.90;;;;;;4977671;28;20091;-72
2023/09/10 11:13:24;;;;;;;44.75;41.65;;;29.80;99.90;;;;;;4960700;28;20137;-71
2023/09/10 11:16:04;;;;;;;47.17;43.70;;;29.80;99.90;;;;;;4960218;28;20047;-71
2023/09/10 11:18:37;;;;;;;45.80;42.50;;;29.90;99.90;;;;;;4979670;28;20095;-72
2023/09/10 11:21:12;;;;;;;48.00;44.70;;;29.90;99.90;;;;;;4974096;28;20050;-72
2023/09/10 11:24:05;;;;;;;47.28;44.20;;;30.00;99.90;;;;;;4966694;28;20054;-71
2023/09/10 11:26:32;;;;;;;46.45;43.35;;;29.80;99.90;;;;;;4990989;28;20052;-72
2023/09/10 11:29:00;;;;;;;47.20;43.42;;;29.80;99.90;;;;;;4956423;28;20054;-71
2023/09/10 11:31:33;;;;;;;47.20;43.78;;;29.80;99.90;;;;;;4957643;28;20535;-71
2023/09/10 11:34:15;;;;;;;47.25;43.78;;;29.90;99.90;;;;;;4991566;28;20069;-71
2023/09/10 11:36:44;;;;;;;46.28;42.88;;;30.00;99.90;;;;;;4979945;28;20122;-70
2023/09/10 11:39:15;;;;;;;49.17;45.33;;;30.00;99.90;;;;;;4975258;28;22436;-71
2023/09/10 11:41:44;;;;;;;49.20;45.55;;;29.90;99.90;;;;;;4974623;28;20061;-71
2023/09/10 11:44:11;;;;;;;49.65;46.38;;;30.00;99.90;;;;;;4959845;28;20069;-71
2023/09/10 11:46:38;;;;;;;48.28;44.22;;;30.00;99.90;;;;;;4977461;28;20054;-71
2023/09/10 11:49:05;;;;;;;49.05;45.08;;;29.90;99.90;;;;;;4961035;28;20545;-71
2023/09/10 11:51:39;;;;;;;48.53;44.40;;;30.00;99.90;;;;;;4957307;28;20400;-72
2023/09/10 11:54:06;;;;;;;;;;;30.10;99.90;;;;;;4982547;28;20078;-71
2023/09/10 11:56:33;;;;;;;50.08;45.72;;;29.90;99.90;;;;;;4974332;28;19922;-71
2023/09/10 11:59:01;;;;;;;49.17;45.38;;;29.80;99.90;;;;;;4957897;28;20538;-71
2023/09/10 12:01:28;;;;;;;46.78;43.00;;;29.60;99.90;;;;;;4965640;28;20375;-71
2023/09/10 12:03:55;;;;;;;49.47;45.35;;;29.60;99.90;;;;;;4965240;28;20065;-71
2023/09/10 12:06:22;;;;;;;50.42;46.13;;;29.60;99.90;;;;;;4937305;28;20065;-71
2023/09/10 12:08:49;;;;;;;47.95;43.97;;;29.60;99.90;;;;;;4959410;28;20077;-72
2023/09/10 12:11:18;;;;;;;48.80;44.97;;;29.70;99.90;;;;;;4978709;28;20077;-71
2023/09/10 12:13:45;;;;;;;48.20;44.15;;;29.70;99.90;;;;;;4974927;28;20069;-73
2023/09/10 12:16:14;;;;;;;48.55;45.08;;;29.60;99.90;;;;;;4972720;28;20162;-71
2023/09/10 12:18:41;;;;;;;49.45;45.67;;;29.80;99.90;;;;;;4958053;28;20046;-72
2023/09/10 12:21:14;;;;;;;48.13;44.10;;;29.60;99.90;;;;;;4957332;28;20050;-72
2023/09/10 12:23:41;;;;;;;48.67;44.67;;;29.70;99.90;;;;;;4979129;28;20050;-73
2023/09/10 12:26:09;;;;;;;50.67;46.33;;;29.80;99.90;;;;;;4966186;28;20507;-72
2023/09/10 12:28:36;;;;;;;47.83;43.90;;;30.10;99.90;;;;;;4968774;28;20078;-72
2023/09/10 12:31:05;;;;;;;49.65;44.90;;;30.10;99.90;;;;;;4978304;28;20046;-71
2023/09/10 12:33:32;;;;;;;49.67;45.35;;;30.20;99.90;;;;;;4973920;28;20054;-73
2023/09/10 12:36:02;;;;;;;48.13;44.15;;;30.30;99.90;;;;;;4976064;28;20062;-72
2023/09/10 12:38:29;;;;;;;50.53;45.88;;;30.40;99.90;;;;;;4973497;28;20476;-71